Date,TemperatureHighF,TemperatureAvgF,TemperatureLowF,DewpointHighF,DewpointAvgF,DewpointLowF,HumidityHigh,HumidityAvg,HumidityLow,PressureMaxIn,PressureMinIn,WindSpeedMaxMPH,WindSpeedAvgMPH,GustSpeedMaxMPH,PrecipitationSumIn
2013-1-1,18.4,12.0,6.1,12.0,5.5,0.7,82,75,65,30.61,30.49,0,0,0,0.00
2013-1-2,32.2,22.1,6.1,24.2,15.9,0.7,83,77,71,30.53,30.36,0,0,0,0.00
2013-1-3,28.6,22.6,10.4,24.8,17.1,5.7,87,79,68,30.67,30.43,0,0,0,0.00
2013-1-4,33.5,23.0,10.4,26.0,17.7,5.9,86,80,73,30.64,30.50,0,0,0,0.00
2013-1-5,37.8,32.0,19.3,33.6,27.8,15.9,87,85,73,30.51,30.26,0,0,0,0.08
2013-1-6,26.1,24.0,18.7,20.8,18.6,13.9,83,79,75,30.60,30.48,0,0,0,0.00
2013-1-7,33.5,31.7,31.1,26.6,26.0,25.6,81,79,76,30.40,30.38,0,0,0,0.00
2013-1-8,43.2,35.5,26.6,34.2,29.0,22.2,84,77,69,30.43,30.30,0,0,0,0.00
2013-1-9,43.0,35.8,29.9,34.1,29.1,24.4,88,77,60,30.81,30.34,0,0,0,0.00
2013-1-10,37.3,37.1,36.9,35.4,35.1,34.7,93,93,92,30.23,30.17,0,0,0,0.20
2013-1-11,52.7,50.9,40.9,48.8,47.2,39.5,95,87,82,30.02,29.91,0,0,0,0.01
2013-1-12,52.0,39.2,21.2,47.2,33.8,17.8,87,81,72,30.33,29.94,0,0,0,0.00
2013-1-13,21.2,16.1,8.5,17.9,9.7,3.6,87,76,67,30.61,30.25,0,0,0,0.00
2013-1-14,24.7,14.5,6.1,15.6,8.3,2.0,83,76,63,30.82,30.61,0,0,0,0.00
2013-1-15,27.7,18.6,10.4,19.0,12.1,6.0,84,76,65,30.76,30.45,0,0,0,0.01
2013-1-16,37.3,28.4,14.8,31.4,21.2,9.5,84,75,63,30.45,30.16,0,0,0,0.08
2013-1-17,35.5,26.7,20.0,31.1,17.8,12.7,84,70,50,30.76,30.42,0,0,0,0.00
2013-1-18,42.3,25.8,22.0,31.8,19.3,15.9,77,76,66,30.75,30.23,0,0,0,0.00
2013-1-19,42.5,35.5,20.5,33.5,25.2,8.5,74,66,55,30.43,30.16,0,0,0,0.00
2013-1-20,20.5,17.5,10.4,9.2,7.0,2.2,69,63,61,30.66,30.43,0,0,0,0.00
2013-1-21,3.4,3.3,3.2,-3.0,-3.1,-3.3,75,74,73,30.66,30.65,0,0,0,0.00
2013-1-22,13.1,6.1,-2.0,1.6,-3.2,-8.9,76,65,58,30.72,30.65,0,0,0,0.00
2013-1-23,29.2,19.1,13.1,14.0,7.5,1.6,68,60,52,30.67,30.43,0,0,0,0.00
2013-1-24,19.3,13.6,4.7,7.9,0.6,-5.3,63,56,50,31.01,30.69,0,0,0,0.00
2013-1-25,34.6,27.8,19.6,21.3,16.9,7.7,76,64,52,30.46,30.30,0,0,0,0.00
2013-1-26,29.0,19.9,9.0,15.3,9.7,2.1,74,65,54,30.74,30.58,0,0,0,0.00
2013-1-27,40.9,31.4,27.0,38.8,25.2,15.3,93,79,61,30.64,30.13,0,0,0,0.22
2013-1-28,47.5,42.3,39.2,45.9,40.3,37.4,95,92,88,30.27,30.02,0,0,0,0.03
2013-1-29,61.9,54.0,38.9,58.7,51.7,36.7,96,92,88,29.99,29.77,0,0,0,0.59
2013-1-30,34.0,25.1,14.6,32.2,22.2,10.4,94,89,82,30.06,29.59,0,0,0,0.11
2013-1-31,16.2,9.4,0.2,12.8,3.8,-5.7,87,78,67,30.61,30.06,0,0,0,0.00
2013-2-1,18.5,5.7,-3.2,13.7,-0.6,-8.7,82,75,69,30.74,30.44,0,0,0,0.00
2013-2-2,25.0,19.8,12.6,21.2,13.9,7.0,87,78,65,30.45,30.31,0,0,0,0.00
2013-2-3,26.8,20.7,15.8,17.9,14.9,11.5,90,78,65,30.42,30.27,0,0,0,0.00
2013-2-4,27.0,23.2,14.4,21.0,17.2,9.6,82,78,72,30.31,30.10,0,0,0,0.00
2013-2-5,36.5,27.5,13.1,29.4,22.3,8.6,85,81,73,30.44,30.13,0,0,0,0.01
2013-2-6,41.4,29.1,20.2,33.4,24.2,16.4,87,82,73,30.52,30.34,0,0,0,0.02
2013-2-7,36.7,34.6,31.1,34.7,32.1,28.1,93,91,83,30.39,30.19,0,0,0,0.48
2013-2-8,31.5,28.5,25.6,28.1,23.3,20.9,88,81,76,30.70,30.39,0,0,0,0.00
2013-2-9,35.8,29.4,25.0,30.2,25.6,20.9,91,85,79,30.71,30.33,0,0,0,0.00
2013-2-10,47.2,40.8,30.6,45.5,38.4,28.4,95,91,70,30.33,29.68,0,0,0,0.21
2013-2-11,32.8,31.0,27.5,26.6,23.5,20.6,79,74,69,30.41,30.01,0,0,0,0.00
2013-2-12,36.0,29.4,25.2,27.6,22.7,19.2,85,76,65,30.46,30.20,0,0,0,0.00
2013-2-13,43.2,35.0,25.9,34.2,29.1,22.6,88,79,67,30.20,29.99,0,0,0,0.00
2013-2-14,43.0,37.0,29.2,32.3,29.4,25.5,87,74,55,30.36,29.95,0,0,0,0.00
2013-2-15,30.6,24.8,16.9,25.7,14.8,8.8,86,66,46,30.57,30.35,0,0,0,0.00
2013-2-16,27.0,18.7,10.8,13.9,9.7,4.6,79,68,55,30.58,30.47,0,0,0,0.00
2013-2-17,35.3,23.8,10.6,23.0,15.1,4.9,79,69,56,30.51,30.16,0,0,0,0.00
2013-2-18,56.9,40.1,30.6,42.2,32.2,22.3,92,74,56,30.17,29.80,0,0,0,0.03
2013-2-20,24.1,16.8,4.0,15.4,9.3,-1.7,79,72,66,30.75,30.67,0,0,0,0.00
2013-2-21,27.5,20.8,11.7,24.1,16.3,6.9,92,83,77,30.71,30.21,0,0,0,0.00
2013-2-22,37.4,27.5,22.0,33.3,24.1,18.1,92,87,79,30.26,30.09,0,0,0,0.01
2013-2-23,32.2,24.9,18.0,23.4,19.1,14.1,86,79,67,30.30,30.24,0,0,0,0.01
2013-2-24,33.1,23.8,11.3,24.8,18.7,7.9,88,81,70,30.44,30.30,0,0,0,0.00
2013-2-25,37.8,29.9,19.4,31.4,25.2,16.1,88,83,75,30.46,30.22,0,0,0,0.05
2013-2-26,35.3,32.5,30.6,29.5,28.6,27.8,91,86,75,30.22,29.86,0,0,0,0.01
2013-2-27,36.4,31.9,29.2,32.1,29.0,26.6,91,89,83,30.13,29.93,0,0,0,0.13
2013-2-28,39.8,34.0,29.9,32.9,29.3,26.4,91,83,68,30.42,30.13,0,0,0,0.25
2013-3-1,33.5,27.6,24.3,26.2,21.1,17.5,87,76,65,30.58,30.42,0,0,0,0.01
2013-3-2,29.9,22.2,14.2,19.2,14.1,8.7,83,71,56,30.59,30.51,0,0,0,0.00
2013-3-3,29.5,20.4,8.8,18.5,12.4,4.6,84,71,58,30.51,30.38,0,0,0,0.00
2013-3-4,32.2,27.5,22.3,25.4,20.9,13.1,83,76,67,30.40,30.22,0,0,0,0.00
2013-3-5,35.5,30.7,26.5,30.9,26.9,23.4,90,85,80,30.45,30.17,0,0,0,0.01
2013-3-6,34.6,28.4,22.5,25.2,22.4,18.8,87,79,66,30.68,30.46,0,0,0,0.02
2013-3-7,35.6,27.6,20.9,26.6,21.5,16.7,84,78,68,30.75,30.66,0,0,0,0.02
2013-3-8,37.1,29.0,16.6,29.9,23.8,13.2,88,81,73,30.76,30.54,0,0,0,0.03
2013-3-9,39.2,36.4,33.3,36.8,33.2,29.2,91,88,81,30.55,30.07,0,0,0,0.27
2013-3-10,42.8,39.9,36.4,41.0,38.2,34.7,95,94,91,30.08,29.86,0,0,0,0.78
2013-3-11,36.5,33.9,29.3,35.0,31.4,23.5,95,91,80,30.19,29.89,0,0,0,0.02
2013-3-12,39.2,30.2,23.8,32.6,24.5,17.9,89,80,66,30.43,30.18,0,0,0,0.01
2013-3-13,34.6,27.2,21.1,20.1,17.7,14.6,84,68,48,30.69,30.43,0,0,0,0.00
2013-3-14,39.4,30.7,21.8,31.8,24.9,16.3,86,79,68,30.69,30.37,0,0,0,0.00
2013-3-15,45.0,36.0,28.4,37.4,31.3,25.0,90,83,72,30.38,30.03,0,0,0,0.00
2013-3-16,39.6,34.7,31.9,31.9,29.1,25.4,92,80,61,30.44,30.02,0,0,0,0.00
2013-3-17,34.9,30.6,24.7,26.7,23.0,16.8,82,73,66,30.53,30.24,0,0,0,0.00
2013-3-18,38.0,29.7,19.8,33.9,24.7,12.1,90,81,69,30.24,29.96,0,0,0,0.05
2013-3-19,32.0,22.9,15.1,18.7,14.0,8.3,77,69,52,30.48,30.18,0,0,0,0.00
2013-3-20,26.1,20.1,12.1,17.9,8.8,3.4,73,61,51,30.52,30.41,0,0,0,0.00
2013-3-21,30.6,22.6,10.6,17.0,11.1,4.1,77,62,46,30.43,30.33,0,0,0,0.00
2013-3-22,39.2,30.2,17.5,25.3,19.1,11.8,82,64,47,30.39,30.33,0,0,0,0.02
2013-3-23,42.5,34.6,24.7,30.8,22.0,18.5,80,61,46,30.45,30.32,0,0,0,0.00
2013-3-24,33.7,31.0,29.0,28.4,25.9,22.8,87,81,66,30.35,30.12,0,0,0,0.02
2013-3-29,56.2,49.2,30.6,36.5,33.1,25.2,82,55,40,30.64,30.53,0,0,0,0.00
2013-3-30,60.8,54.9,47.3,42.6,41.1,39.6,78,60,51,30.37,30.18,0,0,0,0.00
2013-3-31,56.9,47.2,34.6,42.9,33.9,23.2,88,61,40,30.29,30.12,0,0,0,0.00
2013-4-1,45.2,34.5,26.8,27.6,20.4,17.5,76,58,41,30.56,30.29,0,0,0,0.00
2013-4-2,47.0,34.9,21.2,29.8,18.8,14.9,79,54,32,30.67,30.56,0,0,0,0.00
2013-4-3,46.8,36.5,23.0,29.3,18.3,14.7,77,50,33,30.78,30.61,0,0,0,0.00
2013-4-4,60.1,46.5,27.9,36.3,27.4,15.1,68,49,34,30.61,30.31,0,0,0,0.00
2013-4-5,55.1,45.3,32.0,34.8,28.1,24.6,76,53,33,30.56,30.35,0,0,0,0.00
2013-4-6,71.8,53.3,37.4,49.1,35.6,19.1,83,53,34,30.36,29.89,0,0,0,0.00
2013-4-7,63.4,52.4,40.0,44.4,40.8,34.9,83,66,48,30.28,30.00,0,0,0,0.00
2013-4-8,71.6,54.3,43.4,57.9,47.0,38.6,95,78,56,30.20,29.80,0,0,0,0.80
2013-4-9,70.7,52.8,41.8,63.0,48.7,39.1,92,86,72,30.23,30.08,0,0,0,0.17
2013-4-10,41.8,41.3,40.9,39.2,38.8,38.3,92,90,90,30.24,30.14,0,0,0,0.00
2013-4-12,41.8,39.4,36.7,34.0,32.4,30.8,81,76,70,30.20,30.08,0,0,0,0.00
2013-4-13,50.2,41.3,33.7,35.3,31.8,28.3,85,70,52,30.30,30.19,0,0,0,0.00
2013-4-14,75.1,55.5,38.9,54.5,43.4,33.9,85,66,40,30.26,29.83,0,0,0,0.04
2013-4-15,67.9,53.2,41.2,56.9,44.8,36.0,91,75,43,30.34,29.96,0,0,0,0.04
2013-4-16,56.9,46.9,34.4,40.3,35.8,30.0,87,66,50,30.54,30.28,0,0,0,0.00
2013-4-17,49.3,44.1,39.8,48.3,40.6,34.5,96,88,69,30.57,29.99,0,0,0,1.44
2013-4-18,62.3,51.1,36.9,60.8,49.0,32.4,97,93,83,30.11,29.66,0,0,0,1.50
2013-4-19,40.7,36.7,33.5,33.9,30.4,26.8,88,78,67,30.31,29.84,0,0,0,0.00
2013-4-20,58.0,41.3,27.7,40.1,28.3,23.2,89,62,43,30.68,30.31,0,0,0,0.18
2013-4-21,57.8,46.4,36.4,42.0,34.5,25.7,76,64,51,30.76,30.55,0,0,0,0.00
2013-4-22,68.6,57.6,45.5,44.9,40.5,35.6,75,55,38,30.56,30.30,0,0,0,0.01
2013-4-23,54.2,43.0,38.7,46.3,38.2,32.9,88,83,71,30.35,30.24,0,0,0,0.15
2013-4-24,53.5,44.7,35.6,35.9,30.8,27.7,80,60,40,30.41,30.30,0,0,0,0.00
2013-4-25,53.8,44.6,35.3,35.7,29.0,22.4,86,57,30,30.60,30.38,0,0,0,0.00
2013-4-26,70.2,55.8,40.0,48.1,40.0,27.7,69,56,42,30.60,30.52,0,0,0,0.00
2013-4-27,75.8,58.3,43.2,57.0,45.2,39.0,87,63,48,30.58,30.33,0,0,0,0.00
2013-4-28,72.4,66.8,57.2,54.9,49.0,43.7,80,54,43,30.25,30.12,0,0,0,0.02
2013-4-29,78.7,63.9,50.2,60.1,53.1,45.5,85,69,48,30.18,29.99,0,0,0,0.00
2013-4-30,87.3,74.6,60.3,64.1,55.3,49.1,83,55,30,30.22,30.00,0,0,0,0.00
2013-5-1,91.4,75.9,60.1,63.0,53.6,46.0,70,48,30,30.47,30.22,0,0,0,0.00
2013-5-2,63.7,51.8,40.3,46.9,41.2,36.0,87,68,49,30.59,30.44,0,0,0,0.00
2013-5-3,50.8,42.8,37.4,49.1,40.5,34.5,95,92,84,30.49,30.17,0,0,0,0.85
2013-5-4,70.7,57.8,50.0,59.1,53.2,48.3,95,86,59,30.35,30.18,0,0,0,0.08
2013-5-5,74.5,68.2,58.7,59.9,51.6,46.6,88,57,40,30.34,30.26,0,0,0,0.00
2013-5-6,76.9,65.1,50.9,57.1,47.9,43.4,85,57,32,30.37,30.29,0,0,0,0.00
2013-5-7,80.8,68.9,53.8,54.8,45.5,39.5,79,46,30,30.37,30.29,0,0,0,0.00
2013-5-8,86.4,71.6,52.0,58.0,49.5,41.3,73,48,29,30.35,30.27,0,0,0,0.00
2013-5-9,75.4,63.8,59.0,63.1,57.7,52.9,93,81,64,30.28,30.09,0,0,0,0.42
2013-5-10,59.2,51.9,46.4,57.3,47.8,43.4,94,86,76,30.30,30.09,0,0,0,0.02
2013-5-11,61.7,51.8,43.7,54.5,37.6,27.0,94,62,34,30.42,30.19,0,0,0,0.01
2013-5-12,70.6,51.1,37.8,39.8,29.7,25.8,70,46,30,30.50,30.40,0,0,0,0.00
2013-5-13,77.8,59.2,38.0,48.7,36.0,27.5,70,44,26,30.49,30.23,0,0,0,0.00
2013-5-14,90.7,76.9,56.0,63.5,54.0,39.3,68,46,30,30.23,29.92,0,0,0,0.00
2013-5-15,94.3,77.8,64.6,56.5,51.1,46.0,53,40,27,30.17,29.95,0,0,0,0.00
2013-5-16,83.5,73.0,56.2,58.6,49.3,45.2,73,45,28,30.26,30.15,0,0,0,0.00
2013-5-17,85.9,74.6,63.7,65.0,59.0,49.5,82,60,41,30.30,30.19,0,0,0,0.00
2013-5-18,84.8,72.6,59.4,66.9,60.8,55.3,89,68,50,30.33,30.19,0,0,0,0.00
2013-5-19,89.1,73.8,64.1,69.7,63.4,56.9,86,71,51,30.23,29.91,0,0,0,0.57
2013-5-20,83.7,67.6,62.1,69.0,60.5,58.6,90,79,53,30.07,29.83,0,0,0,0.26
2013-5-21,83.9,71.1,61.7,67.5,59.5,55.2,90,68,53,29.99,29.90,0,0,0,0.00
2013-5-22,75.4,61.8,59.0,60.3,55.8,54.2,87,81,56,30.05,29.90,0,0,0,0.00
2013-5-23,67.1,56.9,51.1,54.4,47.6,41.5,91,72,52,30.58,30.07,0,0,0,0.03
2013-5-24,66.4,57.2,38.0,42.4,38.3,32.9,87,52,32,30.77,30.58,0,0,0,0.00
2013-5-25,57.6,53.0,47.3,44.4,42.5,40.7,87,69,55,30.63,30.57,0,0,0,0.17
2013-5-28,78.8,71.1,64.4,71.7,66.7,61.0,92,86,78,30.13,29.96,0,0,0,0.02
2013-5-29,92.2,75.6,60.7,76.5,66.3,58.2,92,74,56,30.20,29.99,0,0,0,0.03
2013-5-30,90.9,77.8,64.4,72.0,66.9,59.5,86,70,51,30.15,29.98,0,0,0,0.05
2013-5-31,73.4,70.5,68.0,66.4,65.3,64.4,90,84,78,30.01,29.94,0,0,0,0.00
2013-6-1,79.2,69.9,62.6,68.8,62.4,57.3,91,78,58,30.06,29.94,0,0,0,0.00
2013-6-2,68.8,60.6,50.0,58.4,51.4,43.1,90,73,54,30.34,30.06,0,0,0,0.00
2013-6-3,87.3,63.6,49.3,60.1,48.4,43.6,87,60,36,30.43,30.31,0,0,0,0.00
2013-6-4,78.8,67.5,52.0,54.6,50.5,46.1,80,56,39,30.46,30.31,0,0,0,0.00
2013-6-5,67.9,62.2,57.4,59.7,54.5,48.9,94,76,59,30.37,30.22,0,0,0,0.22
2013-6-6,66.6,59.1,55.1,60.6,55.3,52.4,93,87,77,30.23,30.16,0,0,0,0.06
2013-6-7,77.0,66.0,56.9,62.6,54.8,49.6,87,69,50,30.27,30.19,0,0,0,0.00
2013-6-8,80.8,68.9,53.3,59.8,52.7,46.4,82,58,42,30.27,30.20,0,0,0,0.00
2013-6-9,80.5,67.3,61.4,63.8,58.5,50.9,93,74,52,30.23,30.05,0,0,0,0.15
2013-6-10,75.8,65.4,58.1,66.2,61.1,56.2,95,86,70,30.18,30.03,0,0,0,0.00
2013-6-11,92.9,75.8,60.8,71.9,65.4,58.1,92,72,49,30.21,30.09,0,0,0,0.00
2013-6-12,93.2,79.8,70.0,76.7,70.0,65.1,89,73,53,30.18,29.86,0,0,0,0.00
2013-6-13,93.2,74.5,60.1,75.3,61.4,55.5,94,66,43,30.32,29.97,0,0,0,0.48
2013-6-14,77.4,69.7,57.8,61.0,56.9,51.8,88,65,50,30.44,30.25,0,0,0,0.00
2013-6-15,85.7,73.7,64.4,71.1,64.6,57.1,86,74,59,30.32,30.12,0,0,0,0.01
2013-6-16,86.4,73.8,65.2,71.4,63.8,55.4,90,72,54,30.25,30.19,0,0,0,0.01
2013-6-17,98.8,79.8,62.5,73.2,62.5,54.7,89,58,43,30.25,30.15,0,0,0,0.00
2013-6-18,79.2,71.7,59.4,60.4,57.1,52.7,81,61,48,30.36,30.19,0,0,0,0.00
2013-6-19,82.1,71.3,54.0,61.3,55.1,46.3,77,58,41,30.44,30.33,0,0,0,0.00
2013-6-20,93.4,83.3,59.6,67.2,62.1,53.6,84,50,39,30.43,30.31,0,0,0,0.00
2013-6-21,83.3,75.0,67.0,71.3,66.0,62.5,90,74,63,30.48,30.22,0,0,0,0.13
2013-6-22,88.9,78.6,67.3,77.5,70.7,63.9,93,77,67,30.42,30.20,0,0,0,0.06
2013-6-23,92.5,78.4,67.5,74.0,67.5,63.3,90,70,49,30.30,30.16,0,0,0,0.00
2013-6-24,85.0,69.1,64.4,77.0,65.9,62.5,95,90,70,30.42,30.17,0,0,0,1.34
2013-6-25,90.7,77.7,67.0,78.5,71.4,64.5,94,82,64,30.22,30.07,0,0,0,0.03
2013-6-26,87.7,78.0,67.1,76.9,71.4,64.9,93,81,64,30.08,29.97,0,0,0,0.06
2013-6-27,104.2,81.8,69.5,79.3,70.2,60.2,93,70,43,30.15,30.05,0,0,0,0.00
2013-6-28,100.4,77.3,65.2,71.0,62.9,59.5,82,63,38,30.10,29.96,0,0,0,0.00
2013-6-29,75.6,67.7,64.1,67.2,62.6,59.3,89,84,73,30.11,29.93,0,0,0,0.21
2013-6-30,87.1,72.8,61.6,67.3,59.9,50.6,90,66,45,30.33,30.11,0,0,0,0.00
2013-7-1,81.9,70.7,55.4,62.6,52.9,49.6,85,55,41,30.39,30.31,0,0,0,0.00
2013-7-2,86.0,70.3,58.0,63.7,54.8,49.9,82,60,39,30.41,30.33,0,0,0,0.00
2013-7-3,89.3,68.6,52.7,64.9,54.3,48.1,88,63,40,30.39,30.32,0,0,0,0.00
2013-7-4,92.5,75.6,58.3,68.8,60.2,51.3,82,61,45,30.38,30.30,0,0,0,0.00
2013-7-5,98.1,78.6,63.7,71.1,62.9,57.8,84,60,41,30.37,30.29,0,0,0,0.00
2013-7-6,96.1,78.8,63.4,73.3,64.8,58.1,86,64,47,30.34,30.24,0,0,0,0.00
2013-7-7,96.5,82.8,69.3,73.3,69.0,63.7,86,65,45,30.29,30.22,0,0,0,0.00
2013-7-8,90.2,80.3,69.7,75.9,71.8,66.6,93,76,61,30.29,30.24,0,0,0,0.19
2013-7-9,87.1,79.6,73.6,77.8,74.0,70.1,91,83,72,30.32,30.16,0,0,0,0.05
2013-7-10,103.3,80.2,64.4,78.7,68.5,57.8,92,69,44,30.34,30.15,0,0,0,0.00
2013-7-11,90.4,73.2,59.9,70.8,58.9,54.3,92,64,40,30.43,30.33,0,0,0,0.00
2013-7-12,87.8,74.4,57.4,65.6,58.3,53.3,90,60,38,30.47,30.37,0,0,0,0.00
2013-7-13,84.1,73.5,57.6,66.0,60.2,52.0,86,64,51,30.46,30.37,0,0,0,0.00
2013-7-14,90.0,78.3,64.1,70.9,66.7,58.6,86,69,51,30.50,30.42,0,0,0,0.00
2013-7-15,93.8,82.2,68.2,76.5,71.7,65.2,91,72,54,30.57,30.50,0,0,0,0.00
2013-7-16,106.9,85.8,71.3,82.0,73.9,68.3,93,70,44,30.61,30.54,0,0,0,0.00
2013-7-17,110.9,87.7,73.3,81.9,74.1,69.7,89,67,37,30.63,30.50,0,0,0,0.00
2013-7-18,111.1,87.6,73.3,82.7,73.8,70.2,92,66,39,30.51,30.26,0,0,0,0.00
2013-7-19,104.8,86.5,71.6,76.8,71.4,65.8,87,63,39,30.26,30.07,0,0,0,0.03
2013-7-20,105.1,80.6,65.2,77.7,66.7,60.0,92,66,37,30.25,30.14,0,0,0,0.01
2013-7-21,88.2,76.1,64.4,72.6,67.0,59.9,91,74,56,30.25,30.13,0,0,0,0.00
2013-7-22,98.3,79.5,65.0,74.3,68.4,62.3,93,71,45,30.19,30.02,0,0,0,0.03
2013-7-23,94.1,74.1,62.8,75.3,62.4,55.1,94,69,48,30.28,30.06,0,0,0,0.01
2013-7-24,83.7,68.8,55.1,64.8,55.8,52.0,91,65,47,30.39,30.28,0,0,0,0.00
2013-7-25,94.5,73.7,56.7,66.6,60.0,52.6,88,64,40,30.41,30.32,0,0,0,0.00
2013-7-26,79.0,69.1,61.2,70.3,63.0,55.6,92,81,66,30.35,30.19,0,0,0,0.03
2013-7-27,76.0,62.4,54.4,61.9,53.3,47.6,90,73,55,30.29,30.23,0,0,0,0.00
2013-7-28,88.6,65.4,54.4,61.5,53.0,48.0,83,66,34,30.36,30.20,0,0,0,0.00
2013-7-29,91.8,69.7,51.5,65.3,55.4,48.0,90,63,38,30.46,30.35,0,0,0,0.00
2013-7-30,66.6,64.5,61.7,64.5,60.2,53.9,94,86,66,30.45,30.34,0,0,0,0.24
2013-7-31,81.9,70.9,64.8,71.0,65.8,61.8,95,85,66,30.36,30.27,0,0,0,0.00
2013-8-1,99.7,74.3,59.4,72.9,61.9,57.4,93,68,39,30.35,30.21,0,0,0,0.00
2013-8-2,89.8,77.6,66.2,72.8,66.4,60.9,84,69,54,30.27,30.16,0,0,0,0.00
2013-8-3,97.2,73.0,59.2,72.0,58.9,54.3,92,64,38,30.46,30.27,0,0,0,0.00
2013-8-4,94.0,71.8,55.3,67.3,55.8,50.9,89,60,36,30.52,30.39,0,0,0,0.00
2013-8-5,75.8,65.7,57.8,68.0,61.0,54.1,95,85,69,30.40,30.15,0,0,0,0.80
2013-8-6,88.0,75.6,67.5,76.6,70.6,65.4,95,85,66,30.19,30.10,0,0,0,0.01
2013-8-7,90.9,78.0,64.1,80.5,69.5,59.5,94,76,58,30.27,30.08,0,0,0,0.00
2013-8-8,83.7,72.0,60.5,68.1,62.7,57.8,93,74,56,30.33,30.25,0,0,0,0.00
2013-8-9,96.3,74.8,61.9,72.8,65.2,58.9,91,73,39,30.38,30.28,0,0,0,0.00
2013-8-10,95.6,72.3,58.9,69.0,59.3,54.3,90,66,39,30.48,30.38,0,0,0,0.00
2013-8-11,88.2,72.9,59.6,70.8,62.5,54.3,90,71,50,30.45,30.31,0,0,0,0.00
2013-8-12,86.0,75.1,64.3,71.7,65.4,58.1,83,72,55,30.34,30.21,0,0,0,0.00
2013-8-13,76.7,66.0,55.4,60.6,53.6,47.5,90,66,45,30.47,30.28,0,0,0,0.00
2013-8-14,90.4,66.4,51.1,65.9,53.0,48.0,91,65,40,30.54,30.44,0,0,0,0.00
2013-8-15,82.1,67.3,56.7,62.9,55.4,50.0,83,67,46,30.48,30.41,0,0,0,0.00
2013-8-16,93.2,70.5,55.3,68.8,57.3,52.0,92,66,43,30.50,30.44,0,0,0,0.00
2013-8-17,84.1,69.2,54.4,63.2,56.6,51.2,91,66,46,30.54,30.46,0,0,0,0.00
2013-8-18,91.4,71.2,55.4,67.4,58.2,52.1,90,66,44,30.53,30.40,0,0,0,0.00
2013-8-19,86.8,74.7,60.3,69.0,63.2,56.3,87,69,51,30.43,30.33,0,0,0,0.00
2013-8-20,88.6,75.5,65.7,70.7,65.1,61.4,88,72,51,30.40,30.31,0,0,0,0.00
2013-8-21,90.7,79.7,69.1,72.0,67.7,63.4,83,68,52,30.37,30.26,0,0,0,0.00
2013-8-22,78.1,73.8,65.9,69.9,66.9,63.2,91,79,70,30.46,30.30,0,0,0,0.01
2013-8-23,82.1,71.9,62.1,68.9,62.6,56.0,94,75,47,30.48,30.40,0,0,0,0.00
2013-8-24,86.9,75.5,59.4,71.1,63.9,54.1,83,68,50,30.54,30.44,0,0,0,0.00
2013-8-25,95.2,80.6,70.0,72.7,67.6,64.1,84,66,47,30.54,30.43,0,0,0,0.00
2013-8-26,88.9,76.2,69.8,72.6,67.6,63.4,82,75,57,30.45,30.29,0,0,0,0.00
2013-8-27,92.5,80.7,74.9,72.1,69.4,66.8,84,70,51,30.30,30.15,0,0,0,0.00
2013-8-28,96.8,84.0,73.4,79.6,72.3,65.9,86,69,54,30.32,30.19,0,0,0,0.00
2013-8-29,85.3,76.3,68.0,74.1,69.8,65.3,92,81,67,30.39,30.26,0,0,0,0.00
2013-8-30,102.1,84.4,70.6,82.0,72.8,67.7,94,70,49,30.27,30.06,0,0,0,0.08
2013-8-31,86.0,76.0,69.1,72.6,68.8,65.7,91,79,63,30.13,30.07,0,0,0,0.00
2013-9-1,90.0,76.3,65.3,76.1,67.3,58.8,94,75,54,30.17,30.03,0,0,0,0.00
2013-9-2,80.1,69.5,58.0,64.9,58.7,51.8,88,70,52,30.32,30.17,0,0,0,0.00
2013-9-3,77.8,65.4,52.2,61.4,55.4,48.7,89,72,52,30.41,30.31,0,0,0,0.00
2013-9-4,83.5,70.9,55.6,65.6,60.5,52.9,92,72,51,30.46,30.35,0,0,0,0.00
2013-9-5,83.9,73.6,64.8,70.4,64.3,58.5,85,73,61,30.52,30.41,0,0,0,0.00
2013-9-6,86.0,72.9,56.9,67.2,59.9,50.9,81,65,47,30.51,30.29,0,0,0,0.00
2013-9-7,90.4,78.7,67.3,71.1,66.3,60.7,80,67,52,30.30,30.16,0,0,0,0.00
2013-9-8,85.0,76.4,70.4,71.7,68.4,65.4,87,77,64,30.30,30.18,0,0,0,0.00
2013-9-9,95.4,81.8,68.0,76.2,69.8,63.8,93,69,46,30.22,30.10,0,0,0,0.00
2013-9-10,94.5,84.8,74.0,69.8,64.4,61.9,68,52,36,30.30,30.17,0,0,0,0.00
2013-9-11,92.5,79.9,69.5,73.2,67.0,63.3,86,65,50,30.37,30.28,0,0,0,0.00
2013-9-12,80.3,70.6,59.0,65.1,56.9,47.9,87,64,42,30.43,30.31,0,0,0,0.00
2013-9-13,67.7,60.4,51.1,48.6,44.7,37.9,78,58,35,30.54,30.42,0,0,0,0.00
2013-9-14,72.0,65.7,53.5,50.8,46.8,43.8,73,51,40,30.49,30.29,0,0,0,0.00
2013-9-15,62.6,57.9,53.3,60.7,52.9,43.7,94,84,56,30.51,30.25,0,0,0,0.29
2013-9-16,66.2,57.5,51.5,53.8,50.3,46.4,94,78,54,30.69,30.50,0,0,0,0.00
2013-9-17,71.1,59.7,45.9,58.6,52.2,42.8,91,77,61,30.63,30.36,0,0,0,0.00
2013-9-18,79.6,70.3,60.5,71.6,63.9,54.5,93,80,72,30.37,30.14,0,0,0,0.09
2013-9-19,90.4,78.0,67.0,73.7,68.6,63.9,92,75,53,30.20,30.01,0,0,0,0.02
2013-9-20,70.2,65.6,57.6,64.8,60.3,52.7,94,83,67,30.19,30.09,0,0,0,0.00
2013-9-21,68.2,58.8,49.3,56.5,51.2,46.5,91,77,61,30.25,30.17,0,0,0,0.00
2013-9-22,68.4,57.4,45.0,52.9,47.6,42.3,90,71,49,30.35,30.25,0,0,0,0.00
2013-9-23,71.8,59.1,46.3,54.1,48.6,42.9,89,70,48,30.37,30.25,0,0,0,0.00
2013-9-24,72.9,60.0,46.4,55.3,50.0,43.1,89,71,51,30.29,30.17,0,0,0,0.00
2013-9-25,74.7,62.3,50.4,55.6,51.5,46.9,90,70,49,30.26,30.18,0,0,0,0.00
2013-9-26,79.6,65.0,50.4,61.5,53.7,46.6,91,69,51,30.33,30.24,0,0,0,0.00
2013-9-27,81.4,67.4,53.3,60.6,51.6,46.3,81,59,35,30.40,30.29,0,0,0,0.00
2013-9-28,80.6,65.8,54.9,65.5,57.5,49.2,90,76,55,30.31,30.17,0,0,0,0.00
2013-9-29,68.6,57.7,46.8,56.5,48.6,42.4,93,74,47,30.39,30.27,0,0,0,0.00
2013-9-30,74.3,60.9,45.4,55.4,48.2,39.9,84,65,44,30.29,30.12,0,0,0,0.00
2013-10-1,80.8,70.1,58.0,66.6,61.2,53.3,90,74,58,30.26,30.14,0,0,0,0.00
2013-10-2,82.6,70.6,61.7,64.5,57.7,46.9,87,66,38,30.37,30.22,0,0,0,0.00
2013-10-3,78.8,70.4,65.5,72.5,66.0,60.1,94,86,76,30.22,30.09,0,0,0,0.02
2013-10-4,76.7,70.1,66.2,72.8,66.3,61.9,94,88,77,30.28,30.13,0,0,0,0.01
2013-10-5,77.9,69.3,53.8,72.0,63.4,45.4,91,82,70,30.17,30.06,0,0,0,0.00
2013-10-6,56.7,49.1,44.5,45.2,41.6,39.7,87,76,60,30.11,30.00,0,0,0,0.00
2013-10-7,69.5,56.0,42.7,53.7,46.4,39.7,91,72,48,30.36,30.07,0,0,0,0.00
2013-10-8,74.9,60.4,46.6,54.5,47.5,42.0,85,65,41,30.45,30.36,0,0,0,0.00
2013-10-9,72.0,57.4,47.2,51.9,45.3,41.7,83,66,39,30.50,30.39,0,0,0,0.00
2013-10-10,74.5,62.6,43.9,58.1,51.0,39.4,85,67,51,30.45,30.29,0,0,0,0.00
2013-10-11,76.3,64.8,52.9,60.3,54.2,49.4,89,70,49,30.30,30.14,0,0,0,0.00
2013-10-12,68.9,62.4,48.6,58.9,49.4,36.7,81,64,43,30.51,30.16,0,0,0,0.00
2013-10-13,63.7,51.9,40.7,45.2,37.7,33.8,79,60,39,30.72,30.50,0,0,0,0.00
2013-10-14,63.4,51.2,37.3,44.9,39.4,31.6,81,65,46,30.70,30.34,0,0,0,0.00
2013-10-15,64.8,55.6,48.4,62.3,49.4,41.7,94,80,64,30.34,30.06,0,0,0,0.07
2013-10-16,53.6,50.6,48.6,45.9,44.3,42.8,86,79,74,30.26,30.14,0,0,0,0.00
2013-10-17,59.6,50.8,44.3,47.4,42.3,35.4,88,74,53,30.24,30.10,0,0,0,0.00
2013-10-18,53.5,47.3,41.8,41.9,38.8,35.8,84,73,63,30.27,30.12,0,0,0,0.00
2013-10-19,55.8,45.5,37.8,40.0,35.4,30.9,80,68,49,30.23,30.06,0,0,0,0.00
2013-10-20,62.8,49.7,38.0,48.1,40.7,32.9,83,72,56,30.13,29.98,0,0,0,0.00
2013-10-21,52.9,42.8,32.6,42.2,30.9,24.4,75,63,47,30.29,30.10,0,0,0,0.00
2013-10-22,36.5,33.8,30.2,34.7,29.8,24.2,93,85,72,30.29,30.17,0,0,0,0.15
2013-10-23,44.3,37.9,31.0,41.7,33.9,29.2,95,86,69,30.35,30.26,0,0,0,0.01
2013-10-24,45.5,37.7,29.9,33.6,27.9,22.2,84,68,55,30.64,30.34,0,0,0,0.00
2013-10-25,52.2,40.6,27.2,37.0,28.1,21.4,83,63,42,30.71,30.32,0,0,0,0.00
2013-10-26,55.1,46.6,36.7,37.5,31.0,25.7,67,55,45,30.41,30.17,0,0,0,0.00
2013-10-27,55.1,42.2,29.5,36.9,29.9,23.5,80,63,46,30.39,30.22,0,0,0,0.00
2013-10-30,59.2,55.7,52.2,57.8,53.6,49.3,95,93,90,30.33,30.01,0,0,0,0.54
2013-10-31,61.7,54.4,42.8,60.6,53.3,41.8,96,96,95,30.00,29.61,0,0,0,0.02
2013-11-1,50.0,45.1,41.4,46.5,43.2,39.5,96,93,88,30.06,29.74,0,0,0,0.00
2013-11-2,51.5,41.6,33.7,44.8,37.1,29.5,93,84,70,30.45,30.05,0,0,0,0.00
2013-11-3,52.2,40.8,29.7,40.2,33.6,27.2,92,77,53,30.56,30.43,0,0,0,0.00
2013-11-4,58.5,50.1,42.8,45.6,40.9,35.5,77,71,60,30.45,30.32,0,0,0,0.00
2013-11-5,53.6,51.8,49.7,52.2,47.9,43.6,95,87,75,30.51,30.14,0,0,0,0.06
2013-11-6,55.8,44.5,32.6,54.4,41.9,28.3,95,91,81,30.52,30.02,0,0,0,0.02
2013-11-7,40.7,34.8,28.1,35.4,30.4,24.7,90,84,79,30.58,30.52,0,0,0,0.00
2013-11-8,49.5,40.2,27.9,37.6,31.9,24.8,90,73,56,30.60,30.11,0,0,0,0.00
2013-11-9,57.2,49.1,40.3,42.5,38.2,31.7,73,66,55,30.50,30.10,0,0,0,0.00
2013-11-10,47.0,40.6,30.4,34.3,31.1,24.7,81,69,59,30.70,30.49,0,0,0,0.01
2013-11-11,47.5,38.2,21.8,35.7,29.2,15.9,85,71,60,30.91,30.37,0,0,0,0.00
2013-11-12,30.1,23.1,17.1,22.1,16.1,11.8,81,75,65,31.08,30.91,0,0,0,0.00
2013-11-13,41.8,31.7,19.1,22.4,18.2,13.2,80,59,41,30.93,30.42,0,0,0,0.00
2013-11-14,52.9,43.1,34.7,32.1,26.3,19.4,61,51,44,30.42,30.19,0,0,0,0.00
2013-11-15,54.0,44.6,36.7,34.8,30.4,24.2,77,58,47,30.25,30.14,0,0,0,0.00
2013-11-16,59.4,52.1,40.1,55.7,48.2,33.9,93,87,75,30.14,29.76,0,0,0,0.01
2013-11-17,70.2,52.5,40.0,62.6,48.5,35.8,94,86,70,30.13,29.43,0,0,0,0.00
2013-11-18,42.5,37.1,29.2,36.5,30.2,23.7,87,76,62,30.58,30.13,0,0,0,0.00
2013-11-19,41.4,32.4,24.7,30.3,26.0,21.1,87,78,63,30.65,30.49,0,0,0,0.00
2013-11-20,40.5,36.0,30.6,36.5,31.6,26.1,94,84,69,30.51,30.32,0,0,0,0.00
2013-11-21,46.1,41.0,37.1,43.9,38.8,35.5,95,92,90,30.57,30.35,0,0,0,0.00
2013-11-22,39.8,32.4,20.3,37.4,28.2,16.7,91,84,73,30.83,30.57,0,0,0,0.00
2013-11-23,23.0,19.0,11.2,16.7,11.6,4.4,86,73,59,31.07,30.80,0,0,0,0.00
2013-11-24,27.9,18.3,7.7,14.4,8.9,2.9,83,67,48,31.05,30.64,0,0,0,0.00
2013-11-25,35.6,29.9,20.5,28.1,21.8,10.9,85,72,62,30.64,30.37,0,0,0,0.00
2013-11-26,33.5,27.9,14.8,26.2,19.4,6.1,82,70,59,30.56,30.36,0,0,0,0.00
2013-11-27,26.6,17.4,10.4,14.9,8.8,3.4,74,69,59,30.63,30.52,0,0,0,0.00
2013-11-28,33.5,24.2,19.1,21.1,15.1,11.2,78,68,58,30.80,30.41,0,0,0,0.00
2013-11-29,35.6,28.4,13.9,23.7,19.7,9.9,87,70,55,30.91,30.64,0,0,0,0.00
2013-11-30,47.9,34.7,26.8,35.1,27.1,19.4,83,74,61,30.64,30.35,0,0,0,0.00
2013-12-1,42.8,35.7,29.5,33.0,28.8,25.0,85,76,67,30.43,30.25,0,0,0,0.00
2013-12-2,43.7,37.3,32.4,34.9,31.8,27.5,89,81,70,30.25,29.95,0,0,0,0.00
2013-12-3,46.1,41.8,36.9,44.5,39.5,33.8,94,92,87,29.96,29.87,0,0,0,0.00
2013-12-4,51.3,44.2,28.4,49.7,42.3,24.8,95,93,86,30.07,29.74,0,0,0,0.00
2013-12-5,28.4,21.1,16.9,25.0,14.8,10.0,87,77,70,30.61,30.07,0,0,0,0.00
2013-12-6,17.5,13.5,8.8,10.3,6.3,2.8,78,73,66,30.91,30.60,0,0,0,0.00
2013-12-7,16.6,9.7,2.3,7.4,2.5,-2.8,81,72,64,31.05,30.89,0,0,0,0.00
2013-12-8,22.3,18.1,12.1,19.5,12.8,4.0,89,80,67,30.90,30.27,0,0,0,0.00
2013-12-9,22.3,9.3,-2.7,19.4,6.0,-6.6,89,86,83,30.56,30.26,0,0,0,0.00
2013-12-10,18.7,12.3,-2.5,15.2,8.2,-6.5,87,84,79,30.59,30.28,0,0,0,0.00
2013-12-11,18.2,9.2,-2.7,14.7,4.1,-8.4,88,80,71,30.92,30.56,0,0,0,0.00
2013-12-12,22.5,12.0,-2.0,14.7,6.3,-6.9,82,78,71,30.88,30.50,0,0,0,0.00
2013-12-13,27.2,20.3,10.6,24.0,16.0,6.4,91,83,78,30.50,30.33,0,0,0,0.00
2013-12-14,31.0,24.7,16.2,28.3,22.1,13.1,92,89,87,30.36,30.27,0,0,0,0.00
2013-12-15,17.6,13.7,9.0,13.1,9.2,4.9,88,82,77,30.43,30.33,0,0,0,0.00
2013-12-16,20.9,17.5,11.9,17.6,13.4,7.7,87,84,80,30.41,30.28,0,0,0,0.00
2013-12-17,33.8,25.1,17.6,28.4,20.5,13.4,90,83,72,30.48,30.30,0,0,0,0.00
2013-12-18,37.3,26.1,14.4,29.5,19.9,10.5,85,78,65,30.48,30.09,0,0,0,0.00
2013-12-19,37.1,33.1,27.4,31.5,29.3,23.4,93,86,79,30.19,30.04,0,0,0,0.01
2013-12-20,32.8,29.2,26.5,31.2,27.3,24.2,94,93,91,30.15,30.03,0,0,0,0.00
2013-12-21,29.2,27.9,26.5,27.4,26.1,24.5,94,92,91,30.17,29.93,0,0,0,0.00
2013-12-22,30.8,24.5,16.9,29.3,22.4,14.1,94,92,89,30.51,30.13,0,0,0,0.00
2013-12-23,16.9,2.6,-4.9,14.1,-1.3,-9.1,89,84,80,30.82,30.51,0,0,0,0.00
2013-12-24,17.8,1.3,-9.7,14.2,-2.6,-13.8,88,83,81,30.89,30.58,0,0,0,0.00
2013-12-25,29.0,23.6,17.8,25.4,20.1,14.0,91,86,80,30.58,30.43,0,0,0,0.00
2013-12-26,37.8,26.2,13.7,31.2,21.9,10.3,89,84,75,30.56,30.41,0,0,0,0.00
2013-12-27,38.7,31.7,21.6,32.1,26.9,19.0,90,83,76,30.58,30.38,0,0,0,0.00
2013-12-28,45.2,39.3,32.9,36.6,32.5,29.2,86,77,67,30.39,30.07,0,0,0,0.00
2013-12-29,40.1,21.3,-0.9,31.2,15.3,-7.5,87,77,70,30.59,30.06,0,0,0,0.00
2013-12-30,13.3,3.0,-5.4,4.7,-3.2,-11.4,82,75,65,30.64,30.49,0,0,0,0.00
2013-12-31,16.4,7.4,-1.1,11.6,2.8,-5.3,84,81,80,30.66,30.50,0,0,0,0.00
2014-1-1,15.1,11.2,7.4,11.6,7.3,3.2,87,84,80,30.57,30.50,0,0,0,0.00
2014-1-2,14.8,9.1,-1.1,10.5,5.1,-5.7,86,84,81,30.76,30.52,0,0,0,0.00